Time;durP1;ratioP1;P1;durP2;ratioP2;P2;SDS_P1;SDS_P2;PMS_P1;PMS_P2;Temp;Humidity;BMP_temperature;BMP_pressure;BME280_temperature;BME280_humidity;BME280_pressure;Samples;Min_cycle;Max_cycle;Signal;HPM_P1;HPM_P2
2023/04/22 00:00:53;;;;;;;1.65;1.55;;;;;;;9.50;70.12;99418.97;5094709;28;20056;-73
2023/04/22 00:03:22;;;;;;;1.88;1.55;;;;;;;9.49;70.08;99412.16;5094891;28;20054;-70
2023/04/22 00:05:52;;;;;;;1.92;1.75;;;;;;;9.51;70.18;99418.94;5094357;28;20048;-72
2023/04/22 00:08:21;;;;;;;0.47;0.47;;;;;;;9.51;69.62;99420.63;5094145;28;20147;-71
2023/04/22 00:10:49;;;;;;;0.98;0.80;;;;;;;9.49;69.58;99415.56;5094172;28;20048;-73
2023/04/22 00:13:18;;;;;;;1.23;1.13;;;;;;;9.57;70.03;99430.84;5076390;28;20032;-72
2023/04/22 00:15:47;;;;;;;4.10;2.03;;;;;;;9.38;69.93;99397.72;5093916;28;20371;-71
2023/04/22 00:18:18;;;;;;;2.00;1.75;;;;;;;9.56;70.47;99429.97;5093642;28;20048;-71
2023/04/22 00:20:47;;;;;;;1.38;1.27;;;;;;;9.59;70.02;99429.13;5094356;28;20044;-72
2023/04/22 00:23:15;;;;;;;0.70;0.70;;;;;;;9.60;69.38;99430.84;5093982;28;20048;-73
2023/04/22 00:25:45;;;;;;;0.70;0.70;;;;;;;9.51;69.91;99429.13;5093948;28;20052;-73
2023/04/22 00:28:14;;;;;;;1.42;1.33;;;;;;;9.44;70.41;99430.00;5094075;28;20531;-71
2023/04/22 00:30:43;;;;;;;1.60;1.50;;;;;;;9.47;70.32;99431.69;5094367;28;20127;-71
2023/04/22 00:33:11;;;;;;;0.85;0.85;;;;;;;9.44;70.44;99435.94;5093815;28;20040;-72
2023/04/22 00:35:42;;;;;;;1.57;1.47;;;;;;;9.46;70.65;99423.19;5075795;28;20040;-73
2023/04/22 00:38:11;;;;;;;5.75;1.27;;;;;;;9.50;70.31;99434.25;5075710;28;20283;-71
2023/04/22 00:40:40;;;;;;;2.13;1.42;;;;;;;9.48;70.08;99421.47;5076030;28;20389;-71
2023/04/22 00:43:09;;;;;;;0.73;0.70;;;;;;;9.55;69.72;99423.19;5094015;28;20048;-73
2023/04/22 00:45:39;;;;;;;2.83;1.23;;;;;;;9.53;69.63;99424.88;5075784;28;20333;-73
2023/04/22 00:48:08;;;;;;;1.05;0.98;;;;;;;9.47;69.90;99413.84;5093782;28;20552;-73
2023/04/22 00:50:37;;;;;;;3.30;0.77;;;;;;;9.54;69.59;99416.41;5093607;28;20040;-73
2023/04/22 00:53:08;;;;;;;0.87;0.83;;;;;;;9.57;69.45;99421.50;5093969;28;20178;-71
2023/04/22 00:55:36;;;;;;;1.73;1.58;;;;;;;9.52;69.75;99427.44;5075584;28;20047;-71
2023/04/22 00:58:05;;;;;;;1.30;1.20;;;;;;;9.52;69.59;99427.44;5093457;28;20048;-72
2023/04/22 01:00:35;;;;;;;0.52;0.52;;;;;;;9.47;69.46;99424.91;5094059;28;20041;-72
2023/04/22 01:03:06;;;;;;;3.25;2.95;;;;;;;9.47;69.75;99418.94;5093507;28;20040;-70
2023/04/22 01:05:36;;;;;;;0.50;0.50;;;;;;;9.43;69.14;99434.22;5093504;28;20048;-72
2023/04/22 01:08:04;;;;;;;2.33;1.80;;;;;;;9.43;70.11;99436.78;5093365;28;20505;-71
2023/04/22 01:10:36;;;;;;;1.37;1.27;;;;;;;9.39;69.82;99436.78;5093501;28;20051;-71
2023/04/22 01:13:05;;;;;;;0.70;0.70;;;;;;;9.35;69.58;99438.50;5093423;28;20052;-69
2023/04/22 01:15:34;;;;;;;0.82;0.82;;;;;;;9.35;69.85;99441.03;5093383;28;20086;-69
2023/04/22 01:18:04;;;;;;;1.70;0.95;;;;;;;9.31;69.40;99438.47;5093225;28;20160;-69
2023/04/22 01:20:33;;;;;;;1.35;1.23;;;;;;;9.32;69.82;99440.16;5094220;28;20192;-71
2023/04/22 01:23:04;;;;;;;1.03;0.93;;;;;;;9.30;69.64;99441.88;5093271;28;20063;-70
2023/04/22 01:25:34;;;;;;;0.70;0.70;;;;;;;9.26;69.47;99441.00;5093568;28;20454;-69
2023/04/22 01:28:04;;;;;;;2.40;1.60;;;;;;;9.30;69.25;99437.63;5093147;28;20040;-71
2023/04/22 01:30:33;;;;;;;;;;;;;;;9.25;69.79;99439.34;5094831;28;20040;-69
2023/04/22 01:33:02;;;;;;;0.93;0.70;;;;;;;9.17;68.95;99430.81;5097562;28;19943;-70
2023/04/22 01:35:35;;;;;;;1.75;1.45;;;;;;;9.19;70.12;99441.84;5079039;28;20052;-71
2023/04/22 01:38:06;;;;;;;1.65;1.17;;;;;;;9.18;70.09;99437.63;5079279;28;20489;-71
2023/04/22 01:40:38;;;;;;;0.82;0.82;;;;;;;9.14;69.59;99430.81;5079035;28;20047;-70
2023/04/22 01:43:07;;;;;;;1.15;0.90;;;;;;;9.11;69.72;99445.25;5078893;28;20076;-72
2023/04/22 01:45:37;;;;;;;0.77;0.77;;;;;;;9.09;69.67;99446.94;5096902;28;20044;-70
2023/04/22 01:48:06;;;;;;;1.10;1.00;;;;;;;9.11;69.71;99437.63;5096630;28;20052;-69
2023/04/22 01:50:37;;;;;;;1.10;1.00;;;;;;;9.09;69.86;99441.88;5096953;28;20482;-70
2023/04/22 01:53:07;;;;;;;1.55;1.35;;;;;;;9.08;69.94;99435.91;5078738;28;20040;-69
2023/04/22 01:55:37;;;;;;;;;;;;;;;9.05;69.88;99442.69;5097687;28;20375;-70
2023/04/22 01:58:06;;;;;;;0.70;0.70;;;;;;;9.04;70.13;99439.31;5078920;28;20015;-69
2023/04/22 02:00:35;;;;;;;1.13;1.05;;;;;;;9.01;69.02;99439.31;5078743;28;20075;-71
2023/04/22 02:03:05;;;;;;;1.40;1.30;;;;;;;9.05;69.57;99443.53;5096811;28;20071;-69
2023/04/22 02:05:34;;;;;;;0.90;0.88;;;;;;;9.04;69.79;99434.22;5096856;28;20063;-69
2023/04/22 02:08:03;;;;;;;0.88;0.85;;;;;;;9.03;69.54;99442.69;5096476;28;20048;-70
2023/04/22 02:10:32;;;;;;;0.90;0.90;;;;;;;9.02;69.58;99435.06;5096465;28;20040;-70
2023/04/22 02:13:02;;;;;;;1.93;1.43;;;;;;;9.04;70.24;99431.69;5096286;28;20044;-71
2023/04/22 02:15:31;;;;;;;1.48;1.25;;;;;;;9.03;69.98;99427.41;5078363;28;20077;-72
2023/04/22 02:18:01;;;;;;;1.80;1.37;;;;;;;9.08;69.74;99428.28;5096475;28;20048;-69
2023/04/22 02:20:30;;;;;;;0.82;0.60;;;;;;;9.08;69.23;99420.66;5096303;28;20458;-71
2023/04/22 02:22:59;;;;;;;5.07;2.00;;;;;;;9.08;69.73;99424.88;5078080;28;20044;-70
2023/04/22 02:25:28;;;;;;;1.25;1.15;;;;;;;9.08;69.60;99429.97;5096166;28;20563;-70
2023/04/22 02:27:57;;;;;;;1.23;1.05;;;;;;;9.08;70.12;99425.72;5096129;28;20050;-70
2023/04/22 02:30:28;;;;;;;0.43;0.43;;;;;;;9.08;69.71;99428.28;5078194;28;20090;-70
2023/04/22 02:32:56;;;;;;;0.50;0.50;;;;;;;9.07;69.26;99426.56;5077934;28;20097;-71
2023/04/22 02:35:25;;;;;;;0.60;0.60;;;;;;;9.07;69.85;99428.28;5096876;28;20034;-72
2023/04/22 02:37:54;;;;;;;0.87;0.87;;;;;;;9.01;69.12;99429.13;5078080;28;20113;-71
2023/04/22 02:40:26;;;;;;;1.23;1.13;;;;;;;9.03;69.66;99419.78;5095925;28;20052;-71
2023/04/22 02:42:55;;;;;;;0.65;0.65;;;;;;;9.05;69.29;99424.88;5077599;28;20082;-70
2023/04/22 02:45:24;;;;;;;0.57;0.57;;;;;;;9.01;69.43;99421.50;5078106;28;20134;-71
2023/04/22 02:47:54;;;;;;;0.20;0.20;;;;;;;8.88;69.09;99407.03;5095506;28;20051;-72
2023/04/22 02:50:23;;;;;;;0.63;0.63;;;;;;;9.00;69.92;99427.41;5095747;28;20075;-71
2023/04/22 02:52:52;;;;;;;1.17;1.00;;;;;;;9.00;69.22;99424.88;5078083;28;20067;-71
2023/04/22 02:55:23;;;;;;;0.55;0.55;;;;;;;8.94;69.84;99429.09;5077631;28;20774;-70
2023/04/22 02:57:52;;;;;;;1.45;1.30;;;;;;;8.88;69.63;99426.56;5077540;28;20040;-71
2023/04/22 03:00:21;;;;;;;1.33;1.20;;;;;;;8.85;69.79;99429.94;5095533;28;20094;-70
2023/04/22 03:02:50;;;;;;;1.27;1.15;;;;;;;8.91;69.75;99432.50;5077395;28;20502;-70
2023/04/22 03:05:24;;;;;;;0.50;0.50;;;;;;;8.83;68.96;99421.44;5095467;28;20048;-71
2023/04/22 03:07:53;;;;;;;1.70;1.27;;;;;;;8.85;68.88;99432.50;5077526;28;20039;-70
2023/04/22 03:10:22;;;;;;;0.75;0.75;;;;;;;8.87;69.13;99435.03;5077615;28;20040;-71
2023/04/22 03:12:51;;;;;;;0.95;0.90;;;;;;;8.82;69.45;99436.72;5095336;28;20040;-70
2023/04/22 03:15:21;;;;;;;0.90;0.85;;;;;;;8.89;69.86;99436.72;5095440;28;20048;-69
2023/04/22 03:17:51;;;;;;;0.40;0.40;;;;;;;8.85;69.57;99435.03;5095373;28;20044;-70
2023/04/22 03:20:21;;;;;;;1.15;1.15;;;;;;;8.90;69.12;99430.78;5077401;28;20113;-71
2023/04/22 03:22:52;;;;;;;0.90;0.90;;;;;;;8.88;68.87;99427.38;5077320;28;20040;-71
2023/04/22 03:25:22;;;;;;;2.95;1.92;;;;;;;8.88;69.19;99432.47;5095145;28;20048;-69
2023/04/22 03:27:54;;;;;;;0.43;0.43;;;;;;;8.81;69.18;99433.31;5094983;28;20079;-70
2023/04/22 03:30:23;;;;;;;1.55;1.02;;;;;;;8.71;69.00;99429.91;5094930;28;20036;-70
2023/04/22 03:32:53;;;;;;;0.77;0.77;;;;;;;8.72;69.59;99430.75;5077107;28;20077;-70
2023/04/22 03:35:26;;;;;;;1.33;1.02;;;;;;;8.70;69.62;99432.44;5095060;28;20144;-71
2023/04/22 03:38:01;;;;;;;1.02;0.98;;;;;;;8.65;69.41;99429.03;5094699;28;20094;-69
2023/04/22 03:40:34;;;;;;;0.57;0.57;;;;;;;8.62;69.35;99434.09;5095091;28;20052;-70
2023/04/22 03:43:10;;;;;;;0.60;0.60;;;;;;;8.57;69.12;99440.88;5094717;28;20093;-70
2023/04/22 03:45:40;;;;;;;0.85;0.85;;;;;;;8.58;68.97;99447.69;5076798;28;20059;-69
2023/04/22 03:48:16;;;;;;;1.30;0.95;;;;;;;8.57;68.95;99440.88;5094397;28;20060;-70
2023/04/22 03:50:49;;;;;;;1.20;1.10;;;;;;;8.52;69.24;99443.41;5094515;28;20132;-71
2023/04/22 03:53:19;;;;;;;1.42;1.33;;;;;;;8.44;69.33;99444.25;5094141;28;20071;-71
2023/04/22 03:55:49;;;;;;;0.30;0.30;;;;;;;8.41;68.54;99449.31;5094676;28;20047;-71
2023/04/22 03:58:19;;;;;;;;;;;;;;;8.42;69.11;99451.00;5094730;28;20036;-71
2023/04/22 04:00:50;;;;;;;0.95;0.90;;;;;;;8.42;68.48;99448.47;5094591;28;19920;-71
2023/04/22 04:03:19;;;;;;;;;;;;;;;8.41;69.57;99444.22;5094680;28;20051;-71
2023/04/22 04:05:52;;;;;;;0.60;0.40;;;;;;;8.44;68.65;99450.19;5076063;28;19924;-72
2023/04/22 04:08:24;;;;;;;1.25;1.10;;;;;;;8.40;69.12;99457.75;5094232;28;20040;-73
2023/04/22 04:10:53;;;;;;;0.40;0.40;;;;;;;8.42;69.15;99453.56;5076212;28;20127;-73
2023/04/22 04:13:21;;;;;;;0.40;0.40;;;;;;;8.44;69.21;99449.31;5094451;28;20520;-73
2023/04/22 04:16:02;;;;;;;16.75;3.55;;;;;;;8.45;69.19;99451.00;5094008;28;20052;-73
2023/04/22 04:18:33;;;;;;;0.75;0.75;;;;;;;8.51;68.68;99448.50;5094515;28;20151;-71
2023/04/22 04:21:03;;;;;;;0.32;0.32;;;;;;;8.58;69.29;99447.69;5094112;28;20507;-71
2023/04/22 04:23:36;;;;;;;2.05;0.98;;;;;;;8.70;68.70;99453.66;5094617;28;20056;-73
2023/04/22 04:26:06;;;;;;;1.13;1.02;;;;;;;8.77;68.29;99454.50;5076040;28;20044;-73
2023/04/22 04:28:40;;;;;;;1.48;1.38;;;;;;;8.74;68.18;99449.41;5076315;28;20048;-71
2023/04/22 04:31:10;;;;;;;1.48;1.08;;;;;;;8.77;67.97;99454.50;5076584;28;20484;-73
2023/04/22 04:33:39;;;;;;;0.50;0.50;;;;;;;8.74;67.90;99455.34;5075958;28;20063;-71
2023/04/22 04:36:09;;;;;;;0.75;0.75;;;;;;;8.79;67.88;99463.00;5094143;28;20131;-73
2023/04/22 04:38:39;;;;;;;;;;;;;;;8.78;68.33;99457.06;5076129;28;20097;-71
2023/04/22 04:41:09;;;;;;;1.05;0.95;;;;;;;8.80;67.96;99457.06;5076336;28;20003;-71
2023/04/22 04:43:40;;;;;;;0.63;0.63;;;;;;;8.85;68.02;99462.19;5076036;28;20044;-73
2023/04/22 04:46:33;;;;;;;0.80;0.80;;;;;;;8.94;68.37;99460.50;5093898;28;20072;-71
2023/04/22 04:49:03;;;;;;;0.95;0.93;;;;;;;8.98;67.76;99464.75;5093432;28;20060;-73
2023/04/22 04:51:37;;;;;;;0.88;0.85;;;;;;;9.02;67.51;99468.16;5093706;28;20113;-73
2023/04/22 04:54:09;;;;;;;1.42;1.27;;;;;;;9.12;68.33;99465.59;5093874;28;20052;-69
2023/04/22 04:56:41;;;;;;;0.47;0.47;;;;;;;9.20;67.85;99466.47;5076098;28;20501;-73
2023/04/22 04:59:11;;;;;;;0.82;0.82;;;;;;;9.29;67.59;99466.47;5093609;28;20128;-70
2023/04/22 05:01:40;;;;;;;;;;;;;;;9.37;67.75;99469.91;5093922;28;20048;-71
2023/04/22 05:04:13;;;;;;;1.02;1.02;;;;;;;9.51;67.09;99471.59;5094503;28;20282;-72
2023/04/22 05:06:44;;;;;;;3.15;2.08;;;;;;;9.61;66.99;99473.28;5079523;28;20047;-72
2023/04/22 05:09:16;;;;;;;1.08;0.98;;;;;;;9.74;67.17;99465.63;5080124;28;20048;-73
2023/04/22 05:11:47;;;;;;;1.20;1.10;;;;;;;9.83;65.93;99470.72;5097885;28;20077;-70
2023/04/22 05:14:20;;;;;;;0.70;0.70;;;;;;;9.94;65.49;99480.91;5097592;28;20047;-70
2023/04/22 05:16:48;;;;;;;2.50;1.17;;;;;;;10.11;65.31;99471.53;5097526;28;20037;-71
2023/04/22 05:19:18;;;;;;;1.08;0.98;;;;;;;10.29;64.57;99471.53;5062714;28;20048;-73
2023/04/22 05:21:48;;;;;;;2.50;1.00;;;;;;;10.37;64.00;99474.88;5097693;28;20044;-71
2023/04/22 05:24:20;;;;;;;0.80;0.80;;;;;;;10.46;63.23;99472.28;5097326;28;20048;-73
2023/04/22 05:26:50;;;;;;;1.60;1.10;;;;;;;10.61;63.28;99462.03;5097304;28;20044;-70
2023/04/22 05:29:20;;;;;;;0.55;0.55;;;;;;;10.78;62.13;99467.06;5097474;28;20040;-71
2023/04/22 05:31:49;;;;;;;3.00;1.35;;;;;;;10.96;62.04;99466.13;5079404;28;20047;-71
2023/04/22 05:34:18;;;;;;;2.30;1.42;;;;;;;11.07;61.12;99466.88;5079127;28;20130;-72
2023/04/22 05:36:47;;;;;;;0.40;0.40;;;;;;;11.28;61.27;99466.72;5079114;28;20050;-72
2023/04/22 05:39:16;;;;;;;1.00;0.80;;;;;;;11.49;60.33;99463.19;5097110;28;20147;-72
2023/04/22 05:41:47;;;;;;;0.40;0.40;;;;;;;11.71;59.87;99459.63;5097109;28;20048;-73
2023/04/22 05:44:17;;;;;;;2.92;1.33;;;;;;;11.84;59.26;99461.19;5096979;28;20063;-72
2023/04/22 05:46:47;;;;;;;1.07;0.83;;;;;;;11.97;59.02;99465.34;5097246;28;20381;-71
2023/04/22 05:49:17;;;;;;;0.93;0.88;;;;;;;11.86;58.43;99437.31;5078597;28;20064;-72
2023/04/22 05:51:57;;;;;;;1.27;0.93;;;;;;;12.12;58.46;99466.91;5096849;28;20135;-73
2023/04/22 05:54:32;;;;;;;1.02;0.90;;;;;;;12.13;57.40;99463.47;5096818;28;20044;-71
2023/04/22 05:57:05;;;;;;;2.53;1.88;;;;;;;12.16;57.12;99463.44;5078722;28;20044;-70
2023/04/22 05:59:34;;;;;;;1.65;1.42;;;;;;;12.22;56.43;99465.91;5078524;28;20126;-73
2023/04/22 06:02:03;;;;;;;1.50;1.17;;;;;;;12.21;56.23;99471.94;5078900;28;20071;-70
2023/04/22 06:04:32;;;;;;;4.40;1.63;;;;;;;12.34;55.93;99468.34;5078587;28;20068;-71
2023/04/22 06:07:05;;;;;;;0.60;0.60;;;;;;;12.45;55.81;99466.53;5078768;28;20048;-70
2023/04/22 06:09:34;;;;;;;0.77;0.77;;;;;;;12.37;55.54;99458.94;5078431;28;20083;-70
2023/04/22 06:12:05;;;;;;;0.95;0.88;;;;;;;12.58;55.60;99462.94;5078971;28;20033;-69
2023/04/22 06:14:36;;;;;;;1.33;0.85;;;;;;;12.78;55.27;99466.97;5096313;28;20048;-70
2023/04/22 06:17:05;;;;;;;2.47;1.45;;;;;;;12.96;55.09;99470.97;5077609;28;20060;-69
2023/04/22 06:19:34;;;;;;;0.57;0.57;;;;;;;13.08;55.03;99454.59;5078725;28;20074;-68
2023/04/22 06:22:03;;;;;;;1.42;1.33;;;;;;;13.23;54.67;99465.50;5078300;28;20285;-71
2023/04/22 06:24:32;;;;;;;1.05;0.95;;;;;;;13.32;54.74;99473.03;5078569;28;20557;-70
2023/04/22 06:27:01;;;;;;;1.90;1.67;;;;;;;13.41;54.89;99475.47;5078205;28;20062;-70
2023/04/22 06:29:32;;;;;;;0.63;0.63;;;;;;;13.42;54.34;99466.91;5096180;28;20044;-70
2023/04/22 06:32:02;;;;;;;0.57;0.57;;;;;;;13.58;54.27;99476.94;5096369;28;20081;-70
2023/04/22 06:34:31;;;;;;;1.73;1.58;;;;;;;13.63;54.13;99467.44;5078058;28;20105;-72
2023/04/22 06:37:00;;;;;;;1.33;0.80;;;;;;;13.70;53.87;99471.59;5077901;28;20040;-71
2023/04/22 06:39:29;;;;;;;0.60;0.60;;;;;;;13.88;53.61;99473.84;5077876;28;20043;-71
2023/04/22 06:42:09;;;;;;;2.95;1.90;;;;;;;13.97;53.69;99478.81;5095911;28;20051;-71
2023/04/22 06:45:03;;;;;;;0.50;0.50;;;;;;;14.10;53.39;99465.75;5057551;28;20047;-72
2023/04/22 06:47:46;;;;;;;0.55;0.55;;;;;;;14.32;53.29;99468.78;5095578;28;20036;-72
2023/04/22 06:50:20;;;;;;;0.80;0.80;;;;;;;14.50;52.96;99463.28;5095651;28;20052;-72
2023/04/22 06:52:55;;;;;;;0.93;0.85;;;;;;;14.56;52.31;99468.31;5095715;28;20051;-71
2023/04/22 06:55:25;;;;;;;0.90;0.90;;;;;;;14.70;52.17;99466.31;5077585;28;20044;-70
2023/04/22 06:57:54;;;;;;;0.83;0.73;;;;;;;14.88;51.54;99466.75;5095993;28;20511;-73
2023/04/22 07:00:24;;;;;;;2.55;1.20;;;;;;;14.95;51.75;99460.63;5077679;28;20074;-71
2023/04/22 07:02:53;;;;;;;1.52;1.42;;;;;;;14.94;51.28;99464.94;5095644;28;20073;-72
2023/04/22 07:05:23;;;;;;;0.50;0.50;;;;;;;15.06;51.05;99463.81;5077658;28;20044;-73
2023/04/22 07:07:51;;;;;;;0.80;0.80;;;;;;;15.26;50.21;99461.63;5077438;28;20040;-73
2023/04/22 07:10:23;;;;;;;1.33;1.05;;;;;;;15.40;50.15;99469.88;5095622;28;20059;-71
2023/04/22 07:13:03;;;;;;;1.20;1.10;;;;;;;15.50;49.42;99471.34;5095207;28;20127;-71
2023/04/22 07:15:34;;;;;;;1.03;0.70;;;;;;;15.63;48.93;99470.19;5095115;28;20032;-72
2023/04/22 07:18:03;;;;;;;2.53;1.98;;;;;;;15.58;49.00;99471.19;5095466;28;20513;-74
2023/04/22 07:20:31;;;;;;;1.57;1.40;;;;;;;15.67;48.94;99463.25;5095502;28;20537;-73
2023/04/22 07:23:00;;;;;;;1.60;1.17;;;;;;;15.85;48.63;99473.06;5095368;28;20067;-72
2023/04/22 07:25:29;;;;;;;1.20;0.53;;;;;;;16.06;48.92;99467.38;5095473;28;20494;-73
2023/04/22 07:27:58;;;;;;;0.40;0.40;;;;;;;16.23;48.32;99459.19;5094205;28;20063;-72
2023/04/22 07:30:27;;;;;;;1.15;1.02;;;;;;;16.27;48.45;99471.13;5095116;28;20032;-71
2023/04/22 07:32:58;;;;;;;0.80;0.80;;;;;;;16.35;48.15;99469.16;5095178;28;20490;-72
2023/04/22 07:35:28;;;;;;;1.27;1.17;;;;;;;16.57;48.00;99462.56;5094885;28;20059;-74
2023/04/22 07:37:57;;;;;;;7.35;2.72;;;;;;;16.75;46.82;99467.16;5094674;28;20533;-73
2023/04/22 07:40:26;;;;;;;1.20;1.10;;;;;;;16.76;46.31;99466.28;5094937;28;20067;-73
2023/04/22 07:42:56;;;;;;;2.50;1.70;;;;;;;16.79;46.35;99467.94;5094539;28;20303;-73
2023/04/22 07:45:25;;;;;;;1.70;1.40;;;;;;;16.88;45.89;99465.94;5094923;28;20048;-72
2023/04/22 07:47:53;;;;;;;1.27;1.17;;;;;;;16.93;45.42;99469.22;5094124;28;20040;-73
2023/04/22 07:50:24;;;;;;;0.93;0.93;;;;;;;17.06;45.72;99467.94;5094523;28;20039;-72
2023/04/22 07:52:53;;;;;;;1.08;0.90;;;;;;;17.16;45.79;99466.78;5094686;28;20090;-72
2023/04/22 07:55:22;;;;;;;0.87;0.83;;;;;;;17.29;45.98;99465.53;5094319;28;20079;-73
2023/04/22 07:57:51;;;;;;;1.80;1.27;;;;;;;17.44;46.80;99474.53;5094936;28;20132;-73
2023/04/22 08:00:19;;;;;;;0.60;0.60;;;;;;;17.61;45.82;99468.84;5094432;28;20036;-72
2023/04/22 08:02:48;;;;;;;0.80;0.80;;;;;;;17.72;45.35;99462.44;5094359;28;20040;-74
2023/04/22 08:05:17;;;;;;;1.88;1.33;;;;;;;17.90;44.74;99461.00;5094566;28;20458;-73
2023/04/22 08:07:48;;;;;;;0.60;0.60;;;;;;;17.94;43.55;99462.56;5094265;28;20036;-72
2023/04/22 08:10:17;;;;;;;0.60;0.60;;;;;;;17.92;43.29;99460.00;5094183;28;20123;-74
2023/04/22 08:12:45;;;;;;;0.93;0.90;;;;;;;17.95;42.75;99459.06;5094100;28;20676;-72
2023/04/22 08:15:14;;;;;;;0.60;0.60;;;;;;;18.03;42.58;99468.25;5094390;28;20040;-73
2023/04/22 08:17:43;;;;;;;1.37;1.27;;;;;;;18.02;42.01;99455.38;5094006;28;20078;-72
2023/04/22 08:20:14;;;;;;;1.63;0.90;;;;;;;18.05;41.90;99463.03;5093930;28;20048;-73
2023/04/22 08:22:43;;;;;;;1.75;1.35;;;;;;;18.14;41.40;99460.13;5094164;28;20047;-73
2023/04/22 08:25:13;;;;;;;1.13;1.03;;;;;;;18.30;41.46;99460.44;5093932;28;20062;-73
2023/04/22 08:27:42;;;;;;;0.90;0.88;;;;;;;18.52;42.18;99456.22;5093806;28;20075;-71
2023/04/22 08:30:11;;;;;;;2.17;1.50;;;;;;;18.72;42.41;99457.16;5094057;28;20118;-71
2023/04/22 08:32:40;;;;;;;1.75;0.68;;;;;;;18.79;42.18;99460.34;5093899;28;20048;-73
2023/04/22 08:35:09;;;;;;;0.97;0.93;;;;;;;18.83;42.19;99461.09;5094084;28;20040;-73
2023/04/22 08:37:40;;;;;;;2.30;1.63;;;;;;;18.94;42.48;99453.75;5094062;28;20130;-70
2023/04/22 08:40:10;;;;;;;2.10;1.02;;;;;;;19.05;42.11;99447.28;5093301;28;20040;-73
2023/04/22 08:42:41;;;;;;;0.98;0.93;;;;;;;19.21;42.54;99452.69;5093710;28;20075;-74
2023/04/22 08:45:10;;;;;;;0.60;0.60;;;;;;;19.25;41.85;99451.66;5093625;28;20051;-73
2023/04/22 08:47:40;;;;;;;1.45;1.33;;;;;;;19.15;41.99;99450.34;5093652;28;20040;-75
2023/04/22 08:50:10;;;;;;;0.70;0.60;;;;;;;19.27;42.39;99447.28;5093776;28;20575;-74
2023/04/22 08:52:39;;;;;;;1.17;1.08;;;;;;;19.35;42.97;99446.06;5093715;28;20032;-73
2023/04/22 08:55:09;;;;;;;1.50;1.40;;;;;;;19.42;42.01;99451.03;5093540;28;20044;-73
2023/04/22 08:57:41;;;;;;;1.85;1.25;;;;;;;19.38;42.17;99450.31;5093824;28;20040;-73
2023/04/22 09:00:12;;;;;;;1.23;1.13;;;;;;;19.56;42.45;99448.72;5093544;28;20052;-73
2023/04/22 09:02:43;;;;;;;0.60;0.60;;;;;;;19.83;43.18;99461.38;5093492;28;20060;-72
2023/04/22 09:05:14;;;;;;;1.33;1.15;;;;;;;19.99;43.35;99453.78;5093485;28;20052;-73
2023/04/22 09:07:45;;;;;;;1.92;1.70;;;;;;;19.99;43.02;99453.78;5094025;28;20040;-74
2023/04/22 09:10:14;;;;;;;0.63;0.63;;;;;;;19.69;42.60;99455.94;5093921;28;20090;-73
2023/04/22 09:12:45;;;;;;;0.73;0.60;;;;;;;19.66;42.49;99456.06;5093628;28;20059;-73
2023/04/22 09:15:13;;;;;;;2.10;1.63;;;;;;;19.64;41.25;99451.84;5093524;28;20048;-72
2023/04/22 09:17:42;;;;;;;1.50;1.33;;;;;;;19.86;40.77;99448.31;5093626;28;20040;-73
2023/04/22 09:20:14;;;;;;;0.82;0.68;;;;;;;19.99;40.19;99449.47;5093341;28;20494;-72
2023/04/22 09:22:45;;;;;;;1.80;1.40;;;;;;;20.14;40.37;99447.13;5093264;28;20056;-73
2023/04/22 09:25:18;;;;;;;0.60;0.60;;;;;;;20.18;39.72;99446.09;5093569;28;20581;-73
2023/04/22 09:27:55;;;;;;;0.52;0.52;;;;;;;20.43;40.34;99444.13;5093427;28;20048;-73
2023/04/22 09:30:28;;;;;;;1.27;1.17;;;;;;;20.51;39.59;99445.47;5093475;28;20131;-71
2023/04/22 09:32:58;;;;;;;0.70;0.70;;;;;;;20.53;39.43;99441.06;5093518;28;20113;-71
2023/04/22 09:35:29;;;;;;;0.77;0.77;;;;;;;20.59;39.48;99439.94;5093379;28;20044;-70
2023/04/22 09:38:00;;;;;;;0.60;0.60;;;;;;;20.73;40.01;99442.75;5093209;28;20048;-71
2023/04/22 09:40:31;;;;;;;0.60;0.60;;;;;;;20.75;40.16;99434.91;5093680;28;20045;-71
2023/04/22 09:43:03;;;;;;;0.95;0.60;;;;;;;20.56;39.69;99430.53;5093271;28;20101;-71
2023/04/22 09:45:35;;;;;;;3.70;1.48;;;;;;;20.55;39.37;99433.22;5093380;28;20400;-70
2023/04/22 09:48:09;;;;;;;1.17;1.08;;;;;;;20.68;39.61;99432.56;5093097;28;20052;-70
2023/04/22 09:50:39;;;;;;;1.95;1.15;;;;;;;20.68;40.11;99423.97;5073050;28;20139;-71
2023/04/22 09:53:10;;;;;;;2.55;2.05;;;;;;;20.82;39.87;99434.56;5076282;28;20124;-70
2023/04/22 09:55:41;;;;;;;1.58;1.33;;;;;;;20.83;39.68;99420.66;5076823;28;20398;-72
2023/04/22 09:58:13;;;;;;;1.15;0.88;;;;;;;20.88;39.67;99421.28;5076846;28;20131;-69
2023/04/22 10:00:44;;;;;;;1.15;0.98;;;;;;;21.04;40.05;99421.41;5076811;28;20393;-71
2023/04/22 10:03:13;;;;;;;1.42;0.93;;;;;;;21.24;40.36;99426.50;5076749;28;20072;-71
2023/04/22 10:05:44;;;;;;;;;;;;;;;21.49;40.23;99420.97;5076687;28;20040;-71
2023/04/22 10:08:14;;;;;;;1.13;0.93;;;;;;;21.61;39.76;99412.56;5076293;28;19970;-71
2023/04/22 10:10:44;;;;;;;0.80;0.80;;;;;;;21.72;39.76;99415.47;5076307;28;20044;-73
2023/04/22 10:13:15;;;;;;;1.13;1.00;;;;;;;21.66;39.40;99415.78;5076187;28;20056;-72
2023/04/22 10:15:49;;;;;;;1.20;0.98;;;;;;;21.58;38.97;99417.91;5076465;28;20068;-72
2023/04/22 10:18:22;;;;;;;0.60;0.60;;;;;;;21.40;39.09;99421.44;5076046;28;20056;-72
2023/04/22 10:20:53;;;;;;;0.73;0.73;;;;;;;21.19;39.08;99416.34;5076373;28;20455;-72
2023/04/22 10:23:24;;;;;;;1.13;1.02;;;;;;;21.13;39.45;99418.41;5076268;28;20520;-72
2023/04/22 10:25:54;;;;;;;0.50;0.50;;;;;;;21.45;39.97;99417.66;5076491;28;20113;-72
2023/04/22 10:28:28;;;;;;;1.15;1.05;;;;;;;21.70;39.77;99410.34;5076313;28;20052;-71
2023/04/22 10:30:57;;;;;;;0.50;0.50;;;;;;;21.82;40.10;99407.13;5076421;28;20072;-72
2023/04/22 10:33:41;;;;;;;1.02;0.93;;;;;;;22.03;40.42;99400.88;5076178;28;20040;-72
2023/04/22 10:36:16;;;;;;;0.70;0.70;;;;;;;22.03;39.57;99400.03;5073919;28;20105;-73
2023/04/22 10:39:06;;;;;;;0.80;0.80;;;;;;;22.12;38.93;99391.78;5075834;28;20494;-71
2023/04/22 10:41:36;;;;;;;;;;;;;;;22.06;38.54;99399.88;5076090;28;20045;-73
2023/04/22 10:44:08;;;;;;;1.10;0.98;;;;;;;22.05;38.57;99393.00;5076182;28;20362;-71
2023/04/22 10:46:58;;;;;;;0.73;0.73;;;;;;;22.13;38.32;99390.84;5075665;28;20044;-71
2023/04/22 10:49:31;;;;;;;1.25;0.90;;;;;;;22.24;38.12;99391.13;5086823;28;20398;-72
2023/04/22 10:52:02;;;;;;;0.65;0.65;;;;;;;22.42;37.55;99387.53;5077631;28;20498;-72
2023/04/22 10:54:53;;;;;;;1.73;1.08;;;;;;;22.46;37.42;99386.44;5095675;28;20051;-72
2023/04/22 10:57:22;;;;;;;2.08;1.20;;;;;;;22.49;37.76;99383.69;5077787;28;20084;-70
2023/04/22 10:59:55;;;;;;;1.05;1.00;;;;;;;22.28;37.15;99384.84;5095587;28;20051;-71
2023/04/22 11:02:24;;;;;;;3.55;2.35;;;;;;;22.27;36.93;99380.53;5095163;28;20044;-72
2023/04/22 11:05:20;;;;;;;1.30;0.85;;;;;;;22.33;36.62;99377.63;5095796;28;20036;-72
2023/04/22 11:07:55;;;;;;;1.02;0.93;;;;;;;22.48;36.97;99382.00;5095444;28;20123;-73
2023/04/22 11:10:43;;;;;;;0.65;0.65;;;;;;;22.41;36.74;99375.44;5095510;28;20044;-73
2023/04/22 11:13:15;;;;;;;1.67;1.20;;;;;;;22.51;36.55;99381.81;5095296;28;20051;-73
2023/04/22 11:15:47;;;;;;;0.65;0.60;;;;;;;22.65;36.21;99374.13;5095426;28;20188;-72
2023/04/22 11:18:21;;;;;;;2.58;1.70;;;;;;;22.64;35.44;99367.28;5095769;28;20043;-72
2023/04/22 11:20:52;;;;;;;1.15;1.05;;;;;;;22.89;35.73;99371.13;5095137;28;20063;-74
2023/04/22 11:23:25;;;;;;;0.50;0.50;;;;;;;23.06;35.62;99376.22;5095325;28;20490;-72
2023/04/22 11:25:56;;;;;;;1.42;1.05;;;;;;;23.00;34.92;99384.38;5095398;28;20122;-72
2023/04/22 11:28:25;;;;;;;0.98;0.98;;;;;;;22.68;34.92;99368.78;5095034;28;20048;-72
2023/04/22 11:31:02;;;;;;;1.13;1.02;;;;;;;22.47;35.21;99369.06;5094937;28;20093;-71
2023/04/22 11:33:33;;;;;;;0.73;0.73;;;;;;;22.35;35.13;99360.19;5094797;28;20044;-73
2023/04/22 11:36:02;;;;;;;0.65;0.65;;;;;;;22.57;35.67;99363.31;5094792;28;20052;-71
2023/04/22 11:38:31;;;;;;;1.67;0.95;;;;;;;22.50;35.70;99359.34;5095408;28;20054;-73
2023/04/22 11:41:00;;;;;;;0.70;0.68;;;;;;;22.58;35.07;99364.97;5094745;28;20071;-71
2023/04/22 11:43:29;;;;;;;1.17;1.00;;;;;;;22.64;33.72;99369.03;5094607;28;20039;-72
2023/04/22 11:46:00;;;;;;;0.60;0.60;;;;;;;22.73;33.50;99367.69;5094594;28;20040;-71
2023/04/22 11:48:29;;;;;;;1.10;0.98;;;;;;;22.85;33.55;99367.00;5094433;28;20048;-71
2023/04/22 11:51:10;;;;;;;0.55;0.55;;;;;;;22.85;33.20;99359.19;5094515;28;20097;-73
2023/04/22 11:53:40;;;;;;;1.30;1.00;;;;;;;22.62;33.24;99358.72;5094559;28;20051;-70
2023/04/22 11:56:08;;;;;;;;;;;;;;;22.07;33.99;99356.53;5095495;28;20048;-71